createdAt,value
2022-10-06T00:00:02.274Z,100.00
2022-10-06T00:00:34.943Z,100.00
2022-10-06T00:01:11.473Z,100.00
2022-10-06T00:01:43.424Z,100.00
2022-10-06T00:02:15.370Z,100.00
2022-10-06T00:02:47.438Z,100.00
2022-10-06T00:03:23.068Z,100.00
2022-10-06T00:03:54.956Z,100.00
2022-10-06T00:04:26.810Z,100.00
2022-10-06T00:04:58.682Z,100.00
2022-10-06T00:05:31.204Z,100.00
2022-10-06T00:06:05.157Z,100.00
2022-10-06T00:06:37.025Z,100.00
2022-10-06T00:07:09.050Z,100.00
2022-10-06T00:07:40.929Z,100.00
2022-10-06T00:08:12.802Z,100.00
2022-10-06T00:08:46.896Z,100.00
2022-10-06T00:09:18.771Z,100.00
2022-10-06T00:09:50.632Z,100.00
2022-10-06T00:10:22.547Z,100.00
2022-10-06T00:10:58.312Z,100.00
2022-10-06T00:11:30.190Z,100.00
2022-10-06T00:12:02.350Z,100.00
2022-10-06T00:12:46.814Z,100.00
2022-10-06T00:13:18.756Z,100.00
2022-10-06T00:13:50.844Z,100.00
2022-10-06T00:14:22.754Z,100.00
2022-10-06T00:14:54.643Z,100.00
2022-10-06T00:15:31.589Z,100.00
2022-10-06T00:16:10.257Z,100.00
2022-10-06T00:16:42.240Z,100.00
2022-10-06T00:17:14.123Z,100.00
2022-10-06T00:17:46.016Z,100.00
2022-10-06T00:18:17.988Z,100.00
2022-10-06T00:18:50.144Z,100.00
2022-10-06T00:19:22.022Z,100.00
2022-10-06T00:19:53.915Z,100.00
2022-10-06T00:20:27.316Z,100.00
2022-10-06T00:21:01.512Z,100.00
2022-10-06T00:21:34.088Z,100.00
2022-10-06T00:22:05.990Z,100.00
2022-10-06T00:22:43.851Z,100.00
2022-10-06T00:23:16.956Z,100.00
2022-10-06T00:23:48.819Z,100.00
2022-10-06T00:24:20.790Z,100.00
2022-10-06T00:24:52.668Z,100.00
2022-10-06T00:25:28.343Z,100.00
2022-10-06T00:26:00.273Z,100.00
2022-10-06T00:26:32.484Z,100.00
2022-10-06T00:27:04.477Z,100.00
2022-10-06T00:27:41.035Z,100.00
2022-10-06T00:28:14.165Z,100.00
2022-10-06T00:28:50.242Z,100.00
2022-10-06T00:29:22.253Z,100.00
2022-10-06T00:29:54.111Z,100.00
2022-10-06T00:30:29.670Z,100.00
2022-10-06T00:31:03.082Z,100.00
2022-10-06T00:31:35.084Z,100.00
2022-10-06T00:32:07.715Z,100.00
2022-10-06T00:32:40.182Z,100.00
2022-10-06T00:33:16.031Z,100.00
2022-10-06T00:33:50.182Z,100.00
2022-10-06T00:34:22.173Z,100.00
2022-10-06T00:34:54.141Z,100.00
2022-10-06T00:35:29.751Z,100.00
2022-10-06T00:36:01.698Z,100.00
2022-10-06T00:36:33.626Z,100.00
2022-10-06T00:37:05.522Z,100.00
2022-10-06T00:37:38.372Z,100.00
2022-10-06T00:38:13.193Z,100.00
2022-10-06T00:38:45.144Z,100.00
2022-10-06T00:39:17.081Z,100.00
2022-10-06T00:39:49.008Z,100.00
2022-10-06T00:40:22.628Z,100.00
2022-10-06T00:40:55.836Z,100.00
2022-10-06T00:41:27.808Z,100.00
2022-10-06T00:42:00.158Z,100.00
2022-10-06T00:42:32.977Z,100.00
2022-10-06T00:43:06.562Z,100.00
2022-10-06T00:43:58.173Z,100.00
2022-10-06T00:44:30.166Z,100.00
2022-10-06T00:45:06.199Z,100.00
2022-10-06T00:45:46.623Z,100.00
2022-10-06T00:46:21.591Z,100.00
2022-10-06T00:46:54.383Z,100.00
2022-10-06T00:47:31.059Z,100.00
2022-10-06T00:48:13.749Z,100.00
2022-10-06T00:48:51.431Z,100.00
2022-10-06T00:49:35.746Z,100.00
2022-10-06T00:50:11.799Z,100.00
2022-10-06T00:50:44.434Z,100.00
2022-10-06T00:51:16.724Z,100.00
2022-10-06T00:52:00.455Z,100.00
2022-10-06T00:52:32.614Z,100.00
2022-10-06T00:53:06.223Z,100.00
2022-10-06T00:53:38.315Z,100.00
2022-10-06T00:54:10.682Z,100.00
2022-10-06T00:54:42.952Z,100.00
2022-10-06T00:55:15.391Z,100.00
2022-10-06T00:55:47.319Z,100.00
2022-10-06T00:56:19.278Z,100.00
2022-10-06T00:56:51.434Z,100.00
2022-10-06T00:57:23.475Z,100.00
2022-10-06T00:57:55.894Z,100.00
2022-10-06T00:58:28.063Z,100.00
2022-10-06T00:59:00.221Z,100.00
2022-10-06T00:59:32.578Z,100.00
2022-10-06T01:00:08.124Z,100.00
2022-10-06T01:00:43.344Z,100.00
2022-10-06T01:01:15.401Z,100.00
2022-10-06T01:02:00.154Z,100.00
2022-10-06T01:02:47.934Z,100.00
2022-10-06T01:03:34.750Z,100.00
2022-10-06T01:04:11.557Z,100.00
2022-10-06T01:04:48.387Z,100.00
2022-10-06T01:05:34.606Z,100.00
2022-10-06T01:06:07.714Z,100.00
2022-10-06T01:06:50.919Z,100.00
2022-10-06T01:07:27.828Z,100.00
2022-10-06T01:07:59.968Z,100.00
2022-10-06T01:08:33.588Z,100.00
2022-10-06T01:09:05.599Z,100.00
2022-10-06T01:09:38.691Z,100.00
2022-10-06T01:10:10.636Z,100.00
2022-10-06T01:10:43.151Z,100.00
2022-10-06T01:11:15.159Z,100.00
2022-10-06T01:11:51.248Z,100.00
2022-10-06T01:12:24.866Z,100.00
2022-10-06T01:12:57.265Z,100.00
2022-10-06T01:13:30.830Z,100.00
2022-10-06T01:14:02.701Z,100.00
2022-10-06T01:14:37.018Z,100.00
2022-10-06T01:15:09.773Z,100.00
2022-10-06T01:15:51.962Z,100.00
2022-10-06T01:16:27.138Z,100.00
2022-10-06T01:17:23.718Z,100.00
2022-10-06T01:18:04.826Z,100.00
2022-10-06T01:18:40.461Z,100.00
2022-10-06T01:19:33.047Z,100.00
2022-10-06T01:20:09.231Z,100.00
2022-10-06T01:20:55.731Z,100.00
2022-10-06T01:21:36.796Z,100.00
2022-10-06T01:22:10.395Z,100.00
2022-10-06T01:22:47.087Z,100.00
2022-10-06T01:23:19.804Z,100.00
2022-10-06T01:23:53.028Z,100.00
2022-10-06T01:24:24.969Z,100.00
2022-10-06T01:24:57.625Z,100.00
2022-10-06T01:25:29.704Z,100.00
2022-10-06T01:26:07.394Z,100.00
2022-10-06T01:26:45.485Z,100.00
2022-10-06T01:27:18.777Z,100.00
2022-10-06T01:27:56.182Z,100.00
2022-10-06T01:28:29.019Z,100.00
2022-10-06T01:29:01.371Z,100.00
2022-10-06T01:29:34.241Z,100.00
2022-10-06T01:30:09.938Z,100.00
2022-10-06T01:30:46.349Z,100.00
2022-10-06T01:31:18.486Z,100.00
2022-10-06T01:31:50.404Z,100.00
2022-10-06T01:32:24.123Z,100.00
2022-10-06T01:32:56.523Z,100.00
2022-10-06T01:33:29.953Z,100.00
2022-10-06T01:34:01.831Z,100.00
2022-10-06T01:34:34.004Z,100.00
2022-10-06T01:35:08.523Z,100.00
2022-10-06T01:35:40.529Z,100.00
2022-10-06T01:36:12.406Z,100.00
2022-10-06T01:36:44.349Z,100.00
2022-10-06T01:37:16.641Z,100.00
2022-10-06T01:37:48.575Z,100.00
2022-10-06T01:38:22.002Z,100.00
2022-10-06T01:38:53.922Z,100.00
2022-10-06T01:39:25.782Z,100.00
2022-10-06T01:39:57.707Z,100.00
2022-10-06T01:40:29.581Z,100.00
2022-10-06T01:41:01.497Z,100.00
2022-10-06T01:41:34.405Z,100.00
2022-10-06T01:42:06.446Z,100.00
2022-10-06T01:42:38.491Z,100.00
2022-10-06T01:43:10.770Z,100.00
2022-10-06T01:43:42.683Z,100.00
2022-10-06T01:44:15.129Z,100.00
2022-10-06T01:44:47.038Z,100.00
2022-10-06T01:45:18.937Z,100.00
2022-10-06T01:45:56.100Z,100.00
2022-10-06T01:46:30.217Z,100.00
2022-10-06T01:47:06.116Z,100.00
2022-10-06T01:47:38.336Z,100.00
2022-10-06T01:48:10.207Z,100.00
2022-10-06T01:48:42.123Z,100.00
2022-10-06T01:49:13.988Z,100.00
2022-10-06T01:49:45.862Z,100.00
2022-10-06T01:50:17.805Z,100.00
2022-10-06T01:50:50.260Z,100.00
2022-10-06T01:51:22.151Z,100.00
2022-10-06T01:51:54.332Z,100.00
2022-10-06T01:52:26.865Z,100.00
2022-10-06T01:52:58.763Z,100.00
2022-10-06T01:53:30.635Z,100.00
2022-10-06T01:54:02.826Z,100.00
2022-10-06T01:54:34.710Z,100.00
2022-10-06T01:55:07.489Z,100.00
2022-10-06T01:55:39.369Z,100.00
2022-10-06T01:56:11.590Z,100.00
2022-10-06T01:56:43.543Z,100.00
2022-10-06T01:57:15.410Z,100.00
2022-10-06T01:57:47.333Z,100.00
2022-10-06T01:58:19.213Z,100.00
2022-10-06T01:58:51.107Z,100.00
2022-10-06T01:59:23.135Z,100.00
2022-10-06T01:59:55.202Z,100.00
2022-10-06T02:00:27.106Z,100.00
2022-10-06T02:01:04.480Z,100.00
2022-10-06T02:01:36.650Z,100.00
2022-10-06T02:02:08.549Z,100.00
2022-10-06T02:02:41.496Z,100.00
2022-10-06T02:03:13.468Z,100.00
2022-10-06T02:03:45.381Z,100.00
2022-10-06T02:04:17.667Z,100.00
2022-10-06T02:04:49.667Z,100.00
2022-10-06T02:05:21.579Z,100.00
2022-10-06T02:05:57.295Z,100.00
2022-10-06T02:06:29.679Z,100.00
2022-10-06T02:07:01.645Z,100.00
2022-10-06T02:07:35.936Z,100.00
2022-10-06T02:08:09.620Z,100.00
2022-10-06T02:08:41.564Z,100.00
2022-10-06T02:09:14.107Z,100.00
2022-10-06T02:09:45.987Z,100.00
2022-10-06T02:10:17.941Z,100.00
2022-10-06T02:10:49.883Z,100.00
2022-10-06T02:11:21.829Z,100.00
2022-10-06T02:11:53.695Z,100.00
2022-10-06T02:12:25.657Z,100.00
2022-10-06T02:12:57.781Z,100.00
2022-10-06T02:13:30.425Z,100.00
2022-10-06T02:14:02.446Z,100.00
2022-10-06T02:14:34.817Z,100.00
2022-10-06T02:15:10.604Z,100.00
2022-10-06T02:15:42.656Z,100.00
2022-10-06T02:16:15.169Z,100.00
2022-10-06T02:16:47.063Z,100.00
2022-10-06T02:17:18.950Z,100.00
2022-10-06T02:17:50.854Z,100.00
2022-10-06T02:18:22.745Z,100.00
2022-10-06T02:18:54.887Z,100.00
2022-10-06T02:19:26.775Z,100.00
2022-10-06T02:19:58.843Z,100.00
2022-10-06T02:20:30.879Z,100.00
2022-10-06T02:21:03.582Z,100.00
2022-10-06T02:21:35.806Z,100.00
2022-10-06T02:22:07.723Z,100.00
2022-10-06T02:22:40.822Z,100.00
2022-10-06T02:23:12.876Z,100.00
2022-10-06T02:23:45.653Z,100.00
2022-10-06T02:24:17.541Z,100.00
2022-10-06T02:24:49.442Z,100.00
2022-10-06T02:25:21.346Z,100.00
2022-10-06T02:26:07.529Z,100.00
2022-10-06T02:26:39.648Z,100.00
2022-10-06T02:27:11.569Z,100.00
2022-10-06T02:27:44.028Z,100.00
2022-10-06T02:28:16.984Z,100.00
2022-10-06T02:28:52.023Z,100.00
2022-10-06T02:29:24.067Z,100.00
2022-10-06T02:29:56.076Z,100.00
2022-10-06T02:30:27.986Z,100.00
2022-10-06T02:31:08.536Z,100.00
2022-10-06T02:31:40.495Z,100.00
2022-10-06T02:32:12.382Z,100.00
2022-10-06T02:32:44.328Z,100.00
2022-10-06T02:33:17.061Z,100.00
2022-10-06T02:33:49.077Z,100.00
2022-10-06T02:34:21.047Z,100.00
2022-10-06T02:34:53.075Z,100.00
2022-10-06T02:35:25.554Z,100.00
2022-10-06T02:35:58.460Z,100.00
2022-10-06T02:36:30.312Z,100.00
2022-10-06T02:37:02.190Z,100.00
2022-10-06T02:37:34.669Z,100.00
2022-10-06T02:38:06.534Z,100.00
2022-10-06T02:38:39.394Z,100.00
2022-10-06T02:39:11.256Z,100.00
2022-10-06T02:39:43.299Z,100.00
2022-10-06T02:40:16.434Z,100.00
2022-10-06T02:40:48.601Z,100.00
2022-10-06T02:41:20.569Z,100.00
2022-10-06T02:41:52.477Z,100.00
2022-10-06T02:42:24.640Z,100.00
2022-10-06T02:42:56.585Z,100.00
2022-10-06T02:43:31.911Z,100.00
2022-10-06T02:44:03.929Z,100.00
2022-10-06T02:44:36.103Z,100.00
2022-10-06T02:45:08.948Z,100.00
2022-10-06T02:45:41.893Z,100.00
2022-10-06T02:46:15.223Z,100.00
2022-10-06T02:46:48.541Z,100.00
2022-10-06T02:47:22.292Z,100.00
2022-10-06T02:47:54.988Z,100.00
2022-10-06T02:48:29.379Z,100.00
2022-10-06T02:49:01.512Z,100.00
2022-10-06T02:49:33.387Z,100.00
2022-10-06T02:50:08.310Z,100.00
2022-10-06T02:50:40.224Z,100.00
2022-10-06T02:51:18.497Z,100.00
2022-10-06T02:51:50.410Z,100.00
2022-10-06T02:52:23.520Z,100.00
2022-10-06T02:52:55.433Z,100.00
2022-10-06T02:53:28.501Z,100.00
2022-10-06T02:54:00.562Z,100.00
2022-10-06T02:54:35.429Z,100.00
2022-10-06T02:55:08.913Z,100.00
2022-10-06T02:55:41.138Z,100.00
2022-10-06T02:56:17.387Z,100.00
2022-10-06T02:56:50.264Z,100.00
2022-10-06T02:57:22.151Z,100.00
2022-10-06T02:57:55.207Z,100.00
2022-10-06T02:58:31.326Z,100.00
2022-10-06T02:59:03.586Z,100.00
2022-10-06T02:59:38.706Z,100.00
2022-10-06T03:00:11.853Z,100.00
2022-10-06T03:00:43.756Z,100.00
2022-10-06T03:01:19.743Z,100.00
2022-10-06T03:01:52.710Z,100.00
2022-10-06T03:02:24.912Z,100.00
2022-10-06T03:02:56.941Z,100.00
2022-10-06T03:03:29.525Z,100.00
2022-10-06T03:04:01.552Z,100.00
2022-10-06T03:04:33.423Z,100.00
2022-10-06T03:05:05.586Z,100.00
2022-10-06T03:05:37.477Z,100.00
2022-10-06T03:06:25.238Z,100.00
2022-10-06T03:06:57.683Z,100.00
2022-10-06T03:07:29.765Z,100.00
2022-10-06T03:08:01.634Z,100.00
2022-10-06T03:08:33.853Z,100.00
2022-10-06T03:09:08.389Z,100.00
2022-10-06T03:09:40.317Z,100.00
2022-10-06T03:10:12.214Z,100.00
2022-10-06T03:10:44.116Z,100.00
2022-10-06T03:11:19.324Z,100.00
2022-10-06T03:11:51.272Z,100.00
2022-10-06T03:12:23.184Z,100.00
2022-10-06T03:12:55.707Z,100.00
2022-10-06T03:13:31.491Z,100.00
2022-10-06T03:14:04.429Z,100.00
2022-10-06T03:14:36.333Z,100.00
2022-10-06T03:15:08.634Z,100.00
2022-10-06T03:15:40.500Z,100.00
2022-10-06T03:16:18.631Z,100.00
2022-10-06T03:16:51.978Z,100.00
2022-10-06T03:17:23.927Z,100.00
2022-10-06T03:17:55.922Z,100.00
2022-10-06T03:18:28.296Z,100.00
2022-10-06T03:19:01.766Z,100.00
2022-10-06T03:19:33.641Z,100.00
2022-10-06T03:20:06.269Z,100.00
2022-10-06T03:20:38.137Z,100.00
2022-10-06T03:21:10.013Z,100.00
2022-10-06T03:21:44.160Z,100.00
2022-10-06T03:22:16.050Z,100.00
2022-10-06T03:22:47.956Z,100.00
2022-10-06T03:23:19.893Z,100.00
2022-10-06T03:23:53.707Z,100.00
2022-10-06T03:24:25.665Z,100.00
2022-10-06T03:24:57.846Z,100.00
2022-10-06T03:25:29.759Z,100.00
2022-10-06T03:26:01.803Z,100.00
2022-10-06T03:26:37.696Z,100.00
2022-10-06T03:27:09.731Z,100.00
2022-10-06T03:27:41.624Z,100.00
2022-10-06T03:28:13.522Z,100.00
2022-10-06T03:28:46.044Z,100.00
2022-10-06T03:29:18.078Z,100.00
2022-10-06T03:29:49.958Z,100.00
2022-10-06T03:30:21.868Z,100.00
2022-10-06T03:30:54.917Z,100.00
2022-10-06T03:31:27.733Z,100.00
2022-10-06T03:31:59.788Z,100.00
2022-10-06T03:32:31.636Z,100.00
2022-10-06T03:33:03.539Z,100.00
2022-10-06T03:33:35.838Z,100.00
2022-10-06T03:34:08.061Z,100.00
2022-10-06T03:34:39.925Z,100.00
2022-10-06T03:35:11.807Z,100.00
2022-10-06T03:35:43.934Z,100.00
2022-10-06T03:36:19.834Z,100.00
2022-10-06T03:36:51.832Z,100.00
2022-10-06T03:37:23.846Z,100.00
2022-10-06T03:37:56.031Z,100.00
2022-10-06T03:38:28.357Z,100.00
2022-10-06T03:39:01.831Z,100.00
2022-10-06T03:39:34.305Z,100.00
2022-10-06T03:40:06.873Z,100.00
2022-10-06T03:40:38.760Z,100.00
2022-10-06T03:41:27.818Z,100.00
2022-10-06T03:41:59.713Z,100.00
2022-10-06T03:42:32.278Z,100.00
2022-10-06T03:43:04.491Z,100.00
2022-10-06T03:43:37.492Z,100.00
2022-10-06T03:44:09.398Z,100.00
2022-10-06T03:44:41.480Z,100.00
2022-10-06T03:45:13.399Z,100.00
2022-10-06T03:45:57.157Z,100.00
2022-10-06T03:46:32.592Z,100.00
2022-10-06T03:47:04.624Z,100.00
2022-10-06T03:47:36.640Z,100.00
2022-10-06T03:48:08.563Z,100.00
2022-10-06T03:48:40.504Z,100.00
2022-10-06T03:49:12.391Z,100.00
2022-10-06T03:49:44.345Z,100.00
2022-10-06T03:50:17.127Z,100.00
2022-10-06T03:50:57.213Z,100.00
2022-10-06T03:51:38.929Z,100.00
2022-10-06T03:52:10.849Z,100.00
2022-10-06T03:52:42.713Z,100.00
2022-10-06T03:53:14.593Z,100.00
2022-10-06T03:53:50.224Z,100.00
2022-10-06T03:54:22.167Z,100.00
2022-10-06T03:54:54.538Z,100.00
2022-10-06T03:55:26.464Z,100.00
2022-10-06T03:56:16.514Z,100.00
2022-10-06T03:56:48.435Z,100.00
2022-10-06T03:57:20.352Z,100.00
2022-10-06T03:57:52.223Z,100.00
2022-10-06T03:58:24.138Z,100.00
2022-10-06T03:59:02.722Z,100.00
2022-10-06T03:59:34.844Z,100.00
2022-10-06T04:00:07.435Z,100.00
2022-10-06T04:00:39.403Z,100.00
2022-10-06T04:01:26.190Z,100.00
2022-10-06T04:01:58.482Z,100.00
2022-10-06T04:02:30.406Z,100.00
2022-10-06T04:03:02.406Z,100.00
2022-10-06T04:03:34.900Z,100.00
2022-10-06T04:04:07.708Z,100.00
2022-10-06T04:04:39.593Z,100.00
2022-10-06T04:05:11.807Z,100.00
2022-10-06T04:06:00.351Z,100.00
2022-10-06T04:06:37.040Z,100.00
2022-10-06T04:07:09.064Z,100.00
2022-10-06T04:07:40.971Z,100.00
2022-10-06T04:08:14.751Z,100.00
2022-10-06T04:08:49.350Z,100.00
2022-10-06T04:09:21.251Z,100.00
2022-10-06T04:09:53.231Z,100.00
2022-10-06T04:10:25.113Z,100.00
2022-10-06T04:11:11.246Z,100.00
2022-10-06T04:11:44.947Z,100.00
2022-10-06T04:12:16.835Z,100.00
2022-10-06T04:12:48.715Z,100.00
2022-10-06T04:13:22.346Z,100.00
2022-10-06T04:14:03.578Z,100.00
2022-10-06T04:14:35.663Z,100.00
2022-10-06T04:15:08.174Z,100.00
2022-10-06T04:15:40.055Z,100.00
2022-10-06T04:16:21.201Z,100.00
2022-10-06T04:16:53.359Z,100.00
2022-10-06T04:17:25.245Z,100.00
2022-10-06T04:17:57.114Z,100.00
2022-10-06T04:18:29.177Z,100.00
2022-10-06T04:19:04.514Z,100.00
2022-10-06T04:19:36.474Z,100.00
2022-10-06T04:20:08.641Z,100.00
2022-10-06T04:20:41.066Z,100.00
2022-10-06T04:21:13.612Z,100.00
2022-10-06T04:21:47.887Z,100.00
2022-10-06T04:22:19.905Z,100.00
2022-10-06T04:22:51.852Z,100.00
2022-10-06T04:23:23.848Z,100.00
2022-10-06T04:24:00.287Z,100.00
2022-10-06T04:24:32.266Z,100.00
2022-10-06T04:25:04.418Z,100.00
2022-10-06T04:25:36.388Z,100.00
2022-10-06T04:26:13.681Z,100.00
2022-10-06T04:26:48.886Z,100.00
2022-10-06T04:27:29.611Z,100.00
2022-10-06T04:28:01.718Z,100.00
2022-10-06T04:28:34.623Z,100.00
2022-10-06T04:29:07.332Z,100.00
2022-10-06T04:29:39.224Z,100.00
2022-10-06T04:30:12.202Z,100.00
2022-10-06T04:30:44.063Z,100.00
2022-10-06T04:31:25.878Z,100.00
2022-10-06T04:31:57.814Z,100.00
2022-10-06T04:32:29.868Z,100.00
2022-10-06T04:33:01.738Z,100.00
2022-10-06T04:33:34.273Z,100.00
2022-10-06T04:34:07.401Z,100.00
2022-10-06T04:34:39.332Z,100.00
2022-10-06T04:35:11.236Z,100.00
2022-10-06T04:35:43.188Z,100.00
2022-10-06T04:36:22.907Z,100.00
2022-10-06T04:36:54.860Z,100.00
2022-10-06T04:37:28.371Z,100.00
2022-10-06T04:38:00.246Z,100.00
2022-10-06T04:38:36.700Z,100.00
2022-10-06T04:39:10.838Z,100.00
2022-10-06T04:39:42.835Z,100.00
2022-10-06T04:40:14.841Z,100.00
2022-10-06T04:40:46.710Z,100.00
2022-10-06T04:41:20.466Z,100.00
2022-10-06T04:41:52.438Z,100.00
2022-10-06T04:42:24.647Z,100.00
2022-10-06T04:42:57.470Z,100.00
2022-10-06T04:43:29.491Z,100.00
2022-10-06T04:44:03.491Z,100.00
2022-10-06T04:44:35.424Z,100.00
2022-10-06T04:45:08.147Z,100.00
2022-10-06T04:45:40.132Z,100.00
2022-10-06T05:36:28.910Z,100.00
2022-10-06T05:37:01.125Z,100.00
2022-10-06T05:37:33.194Z,100.00
2022-10-06T05:38:05.313Z,100.00
2022-10-06T05:38:37.932Z,100.00
2022-10-06T05:39:09.955Z,100.00
2022-10-06T05:39:41.953Z,100.00
2022-10-06T05:40:14.025Z,100.00
2022-10-06T05:40:46.088Z,100.00
2022-10-06T05:41:20.360Z,100.00
2022-10-06T05:41:52.752Z,100.00
2022-10-06T05:42:28.816Z,100.00
2022-10-06T05:43:02.074Z,100.00
2022-10-06T05:43:35.556Z,100.00
2022-10-06T05:44:08.848Z,100.00
2022-10-06T05:44:40.907Z,100.00
2022-10-06T05:45:13.114Z,100.00
2022-10-06T05:45:56.851Z,100.00
2022-10-06T05:46:31.691Z,100.00
2022-10-06T05:47:03.679Z,100.00
2022-10-06T05:47:35.881Z,100.00
2022-10-06T05:48:09.173Z,100.00
2022-10-06T05:48:41.360Z,100.00
2022-10-06T05:49:13.638Z,100.00
2022-10-06T05:49:45.629Z,100.00
2022-10-06T05:50:19.514Z,100.00
2022-10-06T05:51:08.083Z,100.00
2022-10-06T05:51:40.683Z,100.00
2022-10-06T05:52:12.613Z,100.00
2022-10-06T05:52:44.567Z,100.00
2022-10-06T05:53:16.610Z,100.00
2022-10-06T05:53:48.938Z,100.00
2022-10-06T05:54:21.032Z,100.00
2022-10-06T05:54:53.177Z,100.00
2022-10-06T05:55:26.507Z,100.00
2022-10-06T05:56:13.200Z,100.00
2022-10-06T05:56:45.498Z,100.00
2022-10-06T05:57:17.567Z,100.00
2022-10-06T05:57:49.768Z,100.00
2022-10-06T05:58:21.816Z,100.00
2022-10-06T05:58:56.039Z,100.00
2022-10-06T05:59:28.005Z,100.00
2022-10-06T06:00:00.086Z,100.00
2022-10-06T06:00:32.128Z,100.00
2022-10-06T06:01:15.483Z,100.00
2022-10-06T06:01:47.527Z,100.00
2022-10-06T06:02:19.721Z,100.00
2022-10-06T06:02:51.947Z,100.00
2022-10-06T06:03:24.085Z,100.00
2022-10-06T06:04:03.027Z,100.00
2022-10-06T06:04:35.223Z,100.00
2022-10-06T06:05:07.421Z,100.00
2022-10-06T06:05:43.264Z,100.00
2022-10-06T06:06:35.155Z,100.00
2022-10-06T06:07:07.244Z,100.00
2022-10-06T06:07:39.325Z,100.00
2022-10-06T06:08:11.956Z,100.00
2022-10-06T06:08:44.352Z,100.00
2022-10-06T06:09:21.828Z,100.00
2022-10-06T06:09:53.942Z,100.00
2022-10-06T06:10:26.160Z,100.00
2022-10-06T06:11:07.785Z,100.00
2022-10-06T06:11:49.143Z,100.00
2022-10-06T06:12:21.165Z,100.00
2022-10-06T06:12:53.122Z,100.00
2022-10-06T06:13:25.230Z,100.00
2022-10-06T06:14:03.656Z,100.00
2022-10-06T06:14:54.222Z,100.00
2022-10-06T06:15:44.574Z,100.00
2022-10-06T06:16:16.680Z,100.00
2022-10-06T06:16:48.815Z,100.00
2022-10-06T06:17:20.925Z,100.00
2022-10-06T06:17:52.922Z,100.00
2022-10-06T06:18:24.941Z,100.00
2022-10-06T06:18:57.767Z,100.00
2022-10-06T06:19:29.916Z,100.00
2022-10-06T06:20:02.022Z,100.00
2022-10-06T06:20:34.121Z,100.00
2022-10-06T06:21:09.626Z,100.00
2022-10-06T06:21:41.813Z,100.00
2022-10-06T06:22:13.882Z,100.00
2022-10-06T06:22:45.925Z,100.00
2022-10-06T06:23:17.963Z,100.00
2022-10-06T06:23:50.504Z,100.00
2022-10-06T06:24:22.646Z,100.00
2022-10-06T06:24:54.787Z,100.00
2022-10-06T06:25:26.880Z,100.00
2022-10-06T06:26:04.140Z,100.00
2022-10-06T06:26:37.948Z,100.00
2022-10-06T06:27:10.052Z,100.00
2022-10-06T06:27:42.201Z,100.00
2022-10-06T06:28:14.271Z,100.00
2022-10-06T06:28:47.797Z,100.00
2022-10-06T06:29:19.918Z,100.00
2022-10-06T06:29:51.906Z,100.00
2022-10-06T06:30:24.448Z,100.00
2022-10-06T06:31:07.196Z,100.00
2022-10-06T06:31:43.875Z,100.00
2022-10-06T06:32:15.936Z,100.00
2022-10-06T06:32:47.939Z,100.00
2022-10-06T06:33:19.839Z,100.00
2022-10-06T06:33:55.098Z,100.00
2022-10-06T06:34:27.469Z,100.00
2022-10-06T06:34:59.547Z,100.00
2022-10-06T06:35:31.639Z,100.00
2022-10-06T06:36:28.071Z,100.00
2022-10-06T06:37:06.766Z,100.00
2022-10-06T06:37:40.551Z,100.00
2022-10-06T06:38:12.736Z,100.00
2022-10-06T06:38:52.099Z,100.00
2022-10-06T06:39:25.532Z,100.00
2022-10-06T06:39:57.668Z,100.00
2022-10-06T06:40:29.724Z,100.00
2022-10-06T06:41:01.713Z,100.00
2022-10-06T06:41:39.941Z,100.00
2022-10-06T06:42:11.932Z,100.00
2022-10-06T06:42:43.957Z,100.00
2022-10-06T06:43:16.027Z,100.00
2022-10-06T06:43:49.938Z,100.00
2022-10-06T06:44:22.306Z,100.00
2022-10-06T06:44:54.794Z,100.00
2022-10-06T06:45:26.850Z,100.00
2022-10-06T06:46:05.326Z,100.00
2022-10-06T06:46:38.737Z,100.00
2022-10-06T06:47:10.804Z,100.00
2022-10-06T06:47:42.837Z,100.00
2022-10-06T06:48:16.498Z,100.00
2022-10-06T06:48:50.028Z,100.00
2022-10-06T06:49:22.663Z,100.00
2022-10-06T06:49:55.129Z,100.00
2022-10-06T06:50:27.170Z,100.00
2022-10-06T06:50:59.226Z,100.00
2022-10-06T06:51:37.871Z,100.00
2022-10-06T06:52:10.075Z,100.00
2022-10-06T06:52:43.962Z,100.00
2022-10-06T06:53:16.498Z,100.00
2022-10-06T06:53:49.095Z,100.00
2022-10-06T06:54:21.246Z,100.00
2022-10-06T06:54:53.265Z,100.00
2022-10-06T06:55:25.364Z,100.00
2022-10-06T06:55:58.138Z,100.00
2022-10-06T06:56:38.893Z,100.00
2022-10-06T06:57:10.955Z,100.00
2022-10-06T06:57:42.942Z,100.00
2022-10-06T06:58:14.986Z,100.00
2022-10-06T06:58:48.102Z,100.00
2022-10-06T06:59:20.560Z,100.00
2022-10-06T06:59:52.624Z,100.00
2022-10-06T07:00:24.944Z,100.00
2022-10-06T07:01:13.913Z,100.00
2022-10-06T07:01:47.596Z,100.00
2022-10-06T07:02:19.751Z,100.00
2022-10-06T07:02:56.190Z,100.00
2022-10-06T07:03:52.574Z,100.00
2022-10-06T07:04:22.244Z,100.00
2022-10-06T07:04:54.368Z,100.00
2022-10-06T07:05:27.292Z,100.00
2022-10-06T07:06:12.258Z,100.00
2022-10-06T07:06:57.212Z,100.00
2022-10-06T07:07:29.459Z,100.00
2022-10-06T07:08:01.555Z,100.00
2022-10-06T07:08:33.727Z,100.00
2022-10-06T07:09:06.195Z,100.00
2022-10-06T07:09:41.291Z,100.00
2022-10-06T07:10:13.450Z,100.00
2022-10-06T07:10:46.964Z,100.00
2022-10-06T07:11:31.386Z,100.00
2022-10-06T07:12:03.629Z,100.00
2022-10-06T07:12:35.656Z,100.00
2022-10-06T07:13:07.848Z,100.00
2022-10-06T07:13:40.742Z,100.00
2022-10-06T07:14:12.961Z,100.00
2022-10-06T07:15:03.536Z,100.00
2022-10-06T07:15:54.318Z,100.00
2022-10-06T07:16:45.114Z,100.00
2022-10-06T07:17:35.839Z,100.00
2022-10-06T07:18:31.018Z,100.00
2022-10-06T07:19:24.975Z,100.00
2022-10-06T07:19:57.158Z,100.00
2022-10-06T07:20:47.611Z,100.00
2022-10-06T07:21:37.916Z,100.00
2022-10-06T07:22:28.555Z,100.00
2022-10-06T07:23:19.536Z,100.00
2022-10-06T07:24:11.207Z,100.00
2022-10-06T07:25:03.190Z,100.00
2022-10-06T07:25:35.087Z,100.00
2022-10-06T07:26:07.355Z,100.00
2022-10-06T07:26:39.387Z,100.00
2022-10-06T07:27:11.665Z,100.00
2022-10-06T07:27:46.180Z,100.00
2022-10-06T07:28:18.256Z,100.00
2022-10-06T07:28:50.321Z,100.00
2022-10-06T07:29:22.401Z,100.00
2022-10-06T07:29:56.454Z,100.00
2022-10-06T07:30:29.674Z,100.00
2022-10-06T07:31:01.967Z,100.00
2022-10-06T07:31:36.520Z,100.00
2022-10-06T07:32:08.572Z,100.00
2022-10-06T07:32:40.777Z,100.00
2022-10-06T07:33:14.764Z,100.00
2022-10-06T07:33:46.835Z,100.00
2022-10-06T07:34:18.997Z,100.00
2022-10-06T07:34:52.222Z,100.00
2022-10-06T07:35:25.809Z,100.00
2022-10-06T07:35:57.933Z,100.00
2022-10-06T07:36:33.090Z,100.00
2022-10-06T07:37:06.516Z,100.00
2022-10-06T07:37:39.017Z,100.00
2022-10-06T07:38:11.013Z,100.00
2022-10-06T07:38:43.187Z,100.00
2022-10-06T07:39:15.246Z,100.00
2022-10-06T07:39:49.794Z,100.00
2022-10-06T07:40:21.794Z,100.00
2022-10-06T07:41:17.707Z,100.00
2022-10-06T07:41:48.757Z,100.00
2022-10-06T07:42:21.367Z,100.00
2022-10-06T07:42:53.358Z,100.00
2022-10-06T07:43:25.463Z,100.00
2022-10-06T07:43:57.716Z,100.00
2022-10-06T07:44:29.779Z,100.00
2022-10-06T07:45:20.133Z,100.00
2022-10-06T07:45:52.301Z,99.54
2022-10-06T07:46:25.206Z,100.00
2022-10-06T07:46:57.251Z,100.00
2022-10-06T07:47:29.271Z,97.91
2022-10-06T07:48:02.157Z,97.85
2022-10-06T07:48:34.350Z,97.57
2022-10-06T07:49:06.509Z,98.48
2022-10-06T07:49:38.560Z,98.13
2022-10-06T07:50:13.158Z,97.00
2022-10-06T07:50:48.351Z,97.48
2022-10-06T07:51:20.570Z,96.98
2022-10-06T07:51:52.807Z,95.27
2022-10-06T07:52:29.048Z,93.27
2022-10-06T07:53:08.768Z,93.72
2022-10-06T07:53:41.318Z,93.51
2022-10-06T07:54:13.554Z,93.02
2022-10-06T07:54:45.690Z,93.15
2022-10-06T07:55:19.225Z,92.78